createdAt,value
2022-11-02T00:00:48.911Z,100.00
2022-11-02T00:03:51.761Z,100.00
2022-11-02T00:06:54.233Z,100.00
2022-11-02T00:09:56.954Z,100.00
2022-11-02T00:12:59.471Z,100.00
2022-11-02T00:16:08.524Z,100.00
2022-11-02T00:19:11.059Z,100.00
2022-11-02T00:22:13.959Z,100.00
2022-11-02T00:25:18.814Z,100.00
2022-11-02T00:28:21.665Z,100.00
2022-11-02T00:31:24.104Z,100.00
2022-11-02T00:34:27.069Z,100.00
2022-11-02T00:37:29.512Z,100.00
2022-11-02T00:40:32.386Z,100.00
2022-11-02T00:43:34.985Z,100.00
2022-11-02T00:46:37.873Z,100.00
2022-11-02T00:49:40.801Z,100.00
2022-11-02T00:52:44.139Z,100.00
2022-11-02T00:55:47.595Z,100.00
2022-11-02T00:58:51.423Z,100.00
2022-11-02T01:01:56.570Z,100.00
2022-11-02T01:05:00.516Z,100.00
2022-11-02T01:08:03.354Z,100.00
2022-11-02T01:11:25.291Z,100.00
2022-11-02T01:14:27.726Z,100.00
2022-11-02T01:17:30.459Z,100.00
2022-11-02T01:20:32.954Z,100.00
2022-11-02T01:23:36.947Z,100.00
2022-11-02T01:26:39.449Z,100.00
2022-11-02T01:29:43.029Z,100.00
2022-11-02T01:32:45.555Z,100.00
2022-11-02T01:35:48.427Z,100.00
2022-11-02T01:38:51.285Z,100.00
2022-11-02T01:41:54.206Z,100.00
2022-11-02T01:44:56.869Z,100.00
2022-11-02T01:47:59.708Z,100.00
2022-11-02T01:51:06.073Z,100.00
2022-11-02T01:54:19.054Z,100.00
2022-11-02T01:57:22.300Z,100.00
2022-11-02T02:00:25.159Z,100.00
2022-11-02T02:03:30.643Z,100.00
2022-11-02T02:06:33.578Z,100.00
2022-11-02T02:09:37.155Z,100.00
2022-11-02T02:12:41.420Z,100.00
2022-11-02T02:15:50.290Z,100.00
2022-11-02T02:18:57.705Z,100.00
2022-11-02T02:22:12.092Z,100.00
2022-11-02T02:25:26.715Z,100.00
2022-11-02T02:28:35.205Z,100.00
2022-11-02T02:31:47.162Z,100.00
2022-11-02T02:34:59.793Z,100.00
2022-11-02T02:38:05.496Z,100.00
2022-11-02T02:41:14.657Z,100.00
2022-11-02T02:44:21.951Z,100.00
2022-11-02T02:47:27.859Z,100.00
2022-11-02T02:50:46.244Z,100.00
2022-11-02T02:53:53.946Z,100.00
2022-11-02T02:57:06.373Z,100.00
2022-11-02T03:00:17.535Z,100.00
2022-11-02T03:03:24.240Z,100.00
2022-11-02T03:06:30.836Z,100.00
2022-11-02T03:09:39.613Z,100.00
2022-11-02T03:12:46.546Z,100.00
2022-11-02T03:16:12.441Z,100.00
2022-11-02T03:19:15.458Z,100.00
2022-11-02T03:22:38.977Z,100.00
2022-11-02T03:25:47.498Z,100.00
2022-11-02T03:29:08.300Z,100.00
2022-11-02T03:32:19.583Z,100.00
2022-11-02T03:35:31.868Z,100.00
2022-11-02T03:38:41.238Z,100.00
2022-11-02T03:41:45.636Z,100.00
2022-11-02T03:44:52.396Z,100.00
2022-11-02T03:48:00.176Z,100.00
2022-11-02T03:51:06.093Z,100.00
2022-11-02T03:54:27.008Z,100.00
2022-11-02T03:57:34.622Z,100.00
2022-11-02T04:00:38.474Z,100.00
2022-11-02T04:03:44.260Z,100.00
2022-11-02T04:06:48.539Z,100.00
2022-11-02T04:09:51.573Z,100.00
2022-11-02T04:13:13.012Z,100.00
2022-11-02T04:16:16.499Z,100.00
2022-11-02T04:19:27.936Z,100.00
2022-11-02T04:22:50.576Z,100.00
2022-11-02T04:25:55.907Z,100.00
2022-11-02T04:29:05.734Z,100.00
2022-11-02T04:32:08.463Z,100.00
2022-11-02T04:35:11.322Z,100.00
2022-11-02T04:38:33.090Z,100.00
2022-11-02T04:41:41.709Z,100.00
2022-11-02T04:44:44.680Z,100.00
2022-11-02T04:47:48.514Z,100.00
2022-11-02T04:50:51.970Z,100.00
2022-11-02T04:53:55.834Z,100.00
2022-11-02T04:56:59.136Z,100.00
2022-11-02T05:00:02.191Z,100.00
2022-11-02T05:03:08.239Z,100.00
2022-11-02T05:06:14.700Z,100.00
2022-11-02T05:09:17.403Z,100.00
2022-11-02T05:12:23.144Z,100.00
2022-11-02T05:15:28.254Z,100.00
2022-11-02T05:18:31.335Z,100.00
2022-11-02T05:21:34.111Z,100.00
2022-11-02T05:24:38.791Z,100.00
2022-11-02T05:27:42.836Z,100.00
2022-11-02T05:30:45.667Z,100.00
2022-11-02T05:33:48.248Z,100.00
2022-11-02T05:36:51.189Z,100.00
2022-11-02T05:39:54.250Z,100.00
2022-11-02T05:43:01.920Z,100.00
2022-11-02T05:46:05.061Z,100.00
2022-11-02T05:49:07.831Z,100.00
2022-11-02T05:52:10.346Z,100.00
2022-11-02T05:55:13.402Z,100.00
2022-11-02T05:58:15.950Z,100.00
2022-11-02T06:01:18.740Z,100.00
2022-11-02T06:04:21.532Z,100.00
2022-11-02T06:07:23.998Z,100.00
2022-11-02T06:10:30.833Z,100.00
2022-11-02T06:13:33.292Z,100.00
2022-11-02T06:16:36.015Z,100.00
2022-11-02T06:19:38.772Z,100.00
2022-11-02T06:22:42.044Z,100.00
2022-11-02T06:25:53.852Z,100.00
2022-11-02T06:28:56.709Z,100.00
2022-11-02T06:31:59.953Z,100.00
2022-11-02T06:35:02.762Z,100.00
2022-11-02T06:38:05.384Z,100.00
2022-11-02T06:41:08.265Z,100.00
2022-11-02T06:44:11.939Z,100.00
2022-11-02T06:47:14.783Z,100.00
2022-11-02T06:50:17.781Z,100.00
2022-11-02T06:53:20.635Z,100.00
2022-11-02T06:56:23.224Z,100.00
2022-11-02T06:59:26.157Z,100.00
2022-11-02T07:02:28.870Z,100.00
2022-11-02T07:05:32.888Z,100.00
2022-11-02T07:08:35.639Z,100.00
2022-11-02T07:11:38.856Z,100.00
2022-11-02T07:14:41.635Z,97.26
2022-11-02T07:17:44.481Z,91.52
2022-11-02T07:20:47.139Z,79.60
2022-11-02T07:23:50.634Z,75.58
2022-11-02T07:26:53.162Z,73.11
2022-11-02T07:29:56.176Z,71.46
2022-11-02T07:32:58.871Z,69.95
2022-11-02T07:36:03.974Z,69.10
2022-11-02T07:39:09.584Z,68.13
2022-11-02T07:42:12.483Z,68.32
2022-11-02T07:45:18.163Z,68.71
2022-11-02T07:48:21.327Z,67.31
2022-11-02T07:51:23.864Z,66.91
2022-11-02T07:54:26.721Z,67.56
2022-11-02T07:57:29.295Z,65.18
2022-11-02T08:00:35.448Z,69.11
2022-11-02T08:03:38.467Z,65.75
2022-11-02T08:06:41.008Z,65.50
2022-11-02T08:09:43.860Z,63.57
2022-11-02T08:12:46.846Z,65.37
2022-11-02T08:15:53.765Z,65.01
2022-11-02T08:18:59.312Z,65.20
2022-11-02T08:22:02.314Z,70.08
2022-11-02T08:25:05.679Z,74.66
2022-11-02T08:28:13.510Z,73.29
2022-11-02T08:31:17.651Z,71.08
2022-11-02T08:34:20.447Z,68.78
2022-11-02T08:37:22.875Z,70.50
2022-11-02T08:40:26.514Z,72.75
2022-11-02T08:43:29.058Z,73.45
2022-11-02T08:46:31.940Z,75.67
2022-11-02T08:49:34.803Z,76.69
2022-11-02T08:52:40.609Z,76.84
2022-11-02T08:55:43.579Z,74.83
2022-11-02T08:58:46.571Z,72.45
2022-11-02T09:01:49.276Z,77.23
2022-11-02T09:04:52.275Z,79.96
2022-11-02T09:07:59.847Z,75.90
2022-11-02T09:11:04.704Z,73.36
2022-11-02T09:14:08.022Z,70.40
2022-11-02T09:17:10.940Z,71.24
2022-11-02T09:20:14.212Z,70.27
2022-11-02T09:23:17.880Z,68.85
2022-11-02T09:26:20.353Z,73.00
2022-11-02T09:32:27.354Z,75.11
2022-11-02T09:35:32.279Z,78.52
2022-11-02T09:38:34.936Z,80.72
2022-11-02T09:41:49.331Z,82.44
2022-11-02T09:45:12.883Z,83.79
2022-11-02T09:48:28.078Z,82.69
2022-11-02T09:51:37.806Z,84.44
2022-11-02T09:54:41.115Z,84.96
2022-11-02T09:57:46.172Z,86.22
2022-11-02T10:00:49.756Z,86.50
2022-11-02T10:04:40.885Z,86.63
2022-11-02T10:08:11.379Z,87.39
2022-11-02T10:11:22.016Z,87.33
2022-11-02T10:14:30.853Z,87.29
2022-11-02T10:17:37.354Z,88.00
2022-11-02T10:20:46.190Z,87.35
2022-11-02T10:23:53.859Z,88.39
2022-11-02T10:26:59.645Z,89.28
2022-11-02T10:30:18.356Z,88.29
2022-11-02T10:33:28.326Z,87.83
2022-11-02T10:37:01.035Z,89.04
2022-11-02T10:40:19.295Z,87.08
2022-11-02T10:43:40.837Z,88.16
2022-11-02T10:46:53.536Z,86.74
2022-11-02T10:50:24.258Z,83.43
2022-11-02T10:53:40.598Z,83.20
2022-11-02T10:56:47.448Z,82.61
2022-11-02T11:00:29.286Z,82.54
2022-11-02T11:03:32.252Z,83.17
2022-11-02T11:06:37.360Z,80.08
2022-11-02T11:09:52.283Z,80.31
2022-11-02T11:12:55.110Z,81.49
2022-11-02T11:15:58.295Z,81.84
2022-11-02T11:22:24.320Z,83.03
2022-11-02T11:25:28.394Z,83.18
2022-11-02T11:28:41.073Z,82.53
2022-11-02T11:31:43.714Z,80.89
2022-11-02T11:34:54.162Z,81.70
2022-11-02T11:37:59.226Z,82.19
2022-11-02T11:41:02.539Z,79.94
2022-11-02T11:44:08.310Z,80.54
2022-11-02T11:47:11.533Z,78.54
2022-11-02T11:50:22.610Z,79.61
2022-11-02T11:53:33.179Z,78.45
2022-11-02T11:56:35.974Z,78.79
2022-11-02T11:59:46.913Z,79.60
2022-11-02T12:03:04.222Z,76.97
2022-11-02T12:06:24.067Z,75.84
2022-11-02T12:09:54.834Z,78.39
2022-11-02T12:13:22.266Z,77.91
2022-11-02T12:17:03.398Z,78.08
2022-11-02T12:20:27.861Z,78.94
2022-11-02T12:23:56.647Z,79.41
2022-11-02T12:27:10.955Z,79.56
2022-11-02T12:30:17.157Z,79.54
2022-11-02T12:33:32.118Z,81.40
2022-11-02T12:37:31.287Z,81.46
2022-11-02T12:40:23.512Z,76.66
2022-11-02T12:43:28.938Z,78.30
2022-11-02T12:46:48.958Z,77.26
2022-11-02T12:50:00.897Z,77.51
2022-11-02T12:53:17.329Z,76.13
2022-11-02T12:56:23.313Z,75.89
2022-11-02T12:59:28.253Z,75.14
2022-11-02T13:02:31.879Z,75.37
2022-11-02T13:05:50.548Z,76.06
2022-11-02T13:09:18.865Z,76.52
2022-11-02T13:12:23.202Z,77.27
2022-11-02T13:15:27.914Z,77.53
2022-11-02T13:18:35.394Z,77.39
2022-11-02T13:21:44.085Z,76.65
2022-11-02T13:24:52.339Z,78.13
2022-11-02T13:28:04.263Z,76.95
2022-11-02T13:31:15.586Z,74.12
2022-11-02T13:34:23.291Z,71.08
2022-11-02T13:37:49.493Z,69.57
2022-11-02T13:41:01.802Z,69.09
2022-11-02T13:44:31.868Z,70.01
2022-11-02T13:47:52.036Z,69.66
2022-11-02T13:50:57.741Z,70.64
2022-11-02T13:54:20.159Z,72.19
2022-11-02T13:57:38.800Z,72.07
2022-11-02T14:00:44.863Z,71.87
2022-11-02T14:03:49.367Z,71.91
2022-11-02T14:06:53.864Z,72.63
2022-11-02T14:10:08.865Z,73.04
2022-11-02T14:13:14.674Z,73.91
2022-11-02T14:16:48.274Z,73.59
2022-11-02T14:19:52.682Z,73.92
2022-11-02T14:23:14.543Z,74.14
2022-11-02T14:26:31.156Z,74.77
2022-11-02T14:29:45.048Z,74.89
2022-11-02T14:33:02.565Z,75.77
2022-11-02T14:36:28.421Z,76.44
2022-11-02T14:39:49.880Z,77.31
2022-11-02T14:43:22.967Z,77.78
2022-11-02T14:46:58.112Z,78.62
2022-11-02T14:50:12.975Z,79.21
2022-11-02T14:53:27.072Z,79.41
2022-11-02T14:56:48.560Z,80.41
2022-11-02T14:59:53.952Z,81.04
2022-11-02T15:02:57.274Z,82.08
2022-11-02T15:06:19.379Z,82.82
2022-11-02T15:10:10.619Z,83.97
2022-11-02T15:13:19.422Z,85.01
2022-11-02T15:16:23.404Z,85.74
2022-11-02T15:19:53.701Z,86.27
2022-11-02T15:23:31.263Z,86.84
2022-11-02T15:27:01.109Z,87.43
2022-11-02T15:30:06.502Z,88.30
2022-11-02T15:33:29.203Z,89.21
2022-11-02T15:36:39.139Z,90.30
2022-11-02T15:39:48.526Z,91.62
2022-11-02T15:43:03.571Z,93.30
2022-11-02T15:46:33.923Z,93.46
2022-11-02T15:49:42.686Z,92.71
2022-11-02T15:53:16.900Z,90.36
2022-11-02T15:56:49.688Z,89.02
2022-11-02T16:00:13.361Z,88.64
2022-11-02T16:03:17.561Z,89.78
2022-11-02T16:06:26.353Z,89.29
2022-11-02T16:09:32.991Z,89.50
2022-11-02T16:12:35.663Z,89.39
2022-11-02T16:15:42.277Z,89.09
2022-11-02T16:18:51.051Z,87.11
2022-11-02T16:21:58.447Z,86.04
2022-11-02T16:25:12.061Z,85.98
2022-11-02T16:28:20.960Z,85.11
2022-11-02T16:31:31.603Z,84.94
2022-11-02T16:34:34.432Z,84.39
2022-11-02T16:37:37.273Z,83.96
2022-11-02T16:40:40.140Z,83.61
2022-11-02T16:43:45.769Z,83.78
2022-11-02T16:46:52.500Z,84.16
2022-11-02T16:49:55.018Z,85.14
2022-11-02T16:53:02.563Z,85.99
2022-11-02T16:56:16.814Z,86.62
2022-11-02T16:59:21.402Z,87.76
2022-11-02T17:02:37.551Z,88.82
2022-11-02T17:05:42.173Z,89.78
2022-11-02T17:08:51.208Z,90.94
2022-11-02T17:11:56.856Z,91.91
2022-11-02T17:15:01.338Z,92.02
2022-11-02T17:18:26.269Z,92.12
2022-11-02T17:21:29.582Z,93.22
2022-11-02T17:24:32.990Z,94.47
2022-11-02T17:27:39.388Z,95.06
2022-11-02T17:30:45.864Z,96.03
2022-11-02T17:33:48.946Z,96.46
2022-11-02T17:36:52.234Z,95.43
2022-11-02T17:39:55.298Z,95.21
2022-11-02T17:43:02.282Z,95.96
2022-11-02T17:46:04.961Z,96.17
2022-11-02T17:49:07.845Z,95.91
2022-11-02T17:52:13.078Z,96.26
2022-11-02T17:55:21.320Z,96.00
2022-11-02T17:58:23.887Z,95.91
2022-11-02T18:01:26.769Z,95.68
2022-11-02T18:04:30.400Z,94.86
2022-11-02T18:07:33.267Z,94.07
2022-11-02T18:10:44.711Z,93.52
2022-11-02T18:13:47.590Z,93.72
2022-11-02T18:16:52.829Z,94.16
2022-11-02T18:19:55.769Z,95.17
2022-11-02T18:22:58.591Z,94.84
2022-11-02T18:26:01.079Z,94.58
2022-11-02T18:29:04.681Z,93.78
2022-11-02T18:32:07.149Z,94.70
2022-11-02T18:35:12.444Z,95.61
2022-11-02T18:38:15.150Z,96.02
2022-11-02T18:41:35.042Z,95.54
2022-11-02T18:57:13.119Z,95.96
2022-11-02T19:00:17.527Z,95.96
2022-11-02T19:03:20.139Z,97.77
2022-11-02T19:06:42.787Z,96.85
2022-11-02T19:09:46.092Z,95.92
2022-11-02T19:12:49.099Z,94.89
2022-11-02T19:15:51.808Z,94.46
2022-11-02T19:18:54.859Z,94.26
2022-11-02T19:21:57.652Z,94.01
2022-11-02T19:25:01.271Z,93.53
2022-11-02T19:28:04.671Z,93.13
2022-11-02T19:31:10.902Z,92.37
2022-11-02T19:34:13.767Z,92.32
2022-11-02T19:37:16.714Z,92.09
2022-11-02T19:40:19.302Z,91.58
2022-11-02T19:43:22.307Z,91.91
2022-11-02T19:46:25.742Z,92.86
2022-11-02T19:49:28.753Z,94.28
2022-11-02T19:52:31.767Z,94.75
2022-11-02T19:55:34.883Z,95.84
2022-11-02T19:58:37.919Z,96.70
2022-11-02T20:01:42.529Z,97.59
2022-11-02T20:04:45.942Z,98.31
2022-11-02T20:07:48.573Z,99.63
2022-11-02T20:10:51.616Z,99.52
2022-11-02T20:13:56.059Z,100.00
2022-11-02T20:17:17.803Z,100.00
2022-11-02T20:20:21.668Z,100.00
2022-11-02T20:23:24.767Z,100.00
2022-11-02T20:26:29.864Z,100.00
2022-11-02T20:29:33.145Z,100.00
2022-11-02T20:32:35.849Z,100.00
2022-11-02T20:35:40.044Z,100.00
2022-11-02T20:38:42.844Z,100.00
2022-11-02T20:41:46.188Z,100.00
2022-11-02T20:44:49.531Z,100.00
2022-11-02T20:47:52.381Z,100.00
2022-11-02T20:50:54.912Z,100.00
2022-11-02T20:53:57.623Z,100.00
2022-11-02T20:57:00.651Z,100.00
2022-11-02T21:00:07.138Z,100.00
2022-11-02T21:03:09.929Z,100.00
2022-11-02T21:06:12.703Z,100.00
2022-11-02T21:09:15.371Z,100.00
2022-11-02T21:12:36.792Z,100.00
2022-11-02T21:15:39.654Z,100.00
2022-11-02T21:18:42.721Z,100.00
2022-11-02T21:21:45.225Z,100.00
2022-11-02T21:24:48.033Z,100.00
2022-11-02T21:27:50.939Z,100.00
2022-11-02T21:30:53.798Z,100.00
2022-11-02T21:33:56.336Z,100.00
2022-11-02T21:36:59.133Z,100.00
2022-11-02T21:40:02.715Z,100.00
2022-11-02T21:43:05.796Z,100.00
2022-11-02T21:46:08.694Z,100.00
2022-11-02T21:49:13.098Z,100.00
2022-11-02T21:52:15.654Z,100.00
2022-11-02T21:55:18.432Z,100.00
2022-11-02T21:58:21.062Z,100.00
2022-11-02T22:01:48.491Z,100.00
2022-11-02T22:04:53.579Z,100.00
2022-11-02T22:08:14.888Z,100.00
2022-11-02T22:11:21.699Z,100.00
2022-11-02T22:14:24.148Z,100.00
2022-11-02T22:17:48.692Z,100.00
2022-11-02T22:20:55.827Z,100.00
2022-11-02T22:23:59.230Z,100.00
2022-11-02T22:27:03.498Z,100.00
2022-11-02T22:30:08.640Z,100.00
2022-11-02T22:33:11.632Z,100.00
2022-11-02T22:36:16.716Z,100.00
2022-11-02T22:39:19.138Z,100.00
2022-11-02T22:42:22.021Z,100.00
2022-11-02T22:45:24.448Z,100.00
2022-11-02T22:48:27.166Z,100.00
2022-11-02T22:51:31.572Z,100.00
2022-11-02T22:54:34.318Z,100.00
2022-11-02T22:57:36.800Z,100.00
2022-11-02T23:00:40.044Z,100.00
2022-11-02T23:03:42.910Z,100.00
2022-11-02T23:06:45.700Z,100.00
2022-11-02T23:09:48.313Z,100.00
2022-11-02T23:12:51.104Z,100.00
2022-11-02T23:16:21.104Z,100.00
2022-11-02T23:19:29.650Z,100.00
2022-11-02T23:22:32.470Z,100.00
2022-11-02T23:25:35.231Z,100.00
2022-11-02T23:28:56.748Z,100.00
2022-11-02T23:32:18.163Z,100.00
2022-11-02T23:35:38.968Z,100.00
2022-11-02T23:39:05.640Z,100.00
2022-11-02T23:42:08.113Z,100.00
2022-11-02T23:45:11.411Z,100.00
2022-11-02T23:51:40.102Z,100.00
2022-11-02T23:55:01.010Z,100.00
2022-11-02T23:58:03.782Z,100.00
